Time;durP1;ratioP1;P1;durP2;ratioP2;P2;SDS_P1;SDS_P2;PMS_P1;PMS_P2;Temp;Humidity;BMP_temperature;BMP_pressure;BME280_temperature;BME280_humidity;BME280_pressure;Samples;Min_cycle;Max_cycle;Signal;HPM_P1;HPM_P2
2021/11/27 00:02:08;;;;;;;4.95;3.70;;;4.90;99.90;;;;;;5055136;28;20546;-66
2021/11/27 00:04:34;;;;;;;4.70;4.28;;;4.90;99.90;;;;;;5055146;28;20257;-68
2021/11/27 00:07:01;;;;;;;5.65;3.80;;;5.00;99.90;;;;;;5054815;28;20716;-67
2021/11/27 00:09:28;;;;;;;4.32;3.75;;;5.00;99.90;;;;;;5054935;28;20255;-66
2021/11/27 00:11:55;;;;;;;4.05;3.75;;;5.00;99.90;;;;;;5054513;28;20207;-68
2021/11/27 00:14:23;;;;;;;3.83;3.17;;;5.00;99.90;;;;;;5054254;28;20958;-68
2021/11/27 00:16:50;;;;;;;4.45;3.67;;;5.00;99.90;;;;;;5054458;28;20530;-67
2021/11/27 00:19:17;;;;;;;4.28;3.75;;;5.00;99.90;;;;;;5054769;28;20265;-67
2021/11/27 00:21:45;;;;;;;4.78;4.05;;;5.00;99.90;;;;;;5054391;28;20673;-67
2021/11/27 00:24:12;;;;;;;4.20;3.67;;;5.00;99.90;;;;;;5054417;28;20685;-67
2021/11/27 00:26:39;;;;;;;3.80;3.05;;;4.90;99.90;;;;;;5054568;28;20295;-67
2021/11/27 00:29:07;;;;;;;3.88;3.35;;;4.90;99.90;;;;;;5054936;28;20255;-67
2021/11/27 00:31:39;;;;;;;3.92;3.38;;;4.90;99.90;;;;;;5053996;28;20203;-68
2021/11/27 00:34:06;;;;;;;4.50;3.70;;;4.80;99.90;;;;;;5054453;28;20238;-69
2021/11/27 00:36:33;;;;;;;4.13;3.35;;;4.80;99.90;;;;;;5054222;28;20310;-69
2021/11/27 00:39:00;;;;;;;4.35;3.60;;;4.70;99.90;;;;;;5054363;28;20258;-69
2021/11/27 00:41:27;;;;;;;4.63;3.45;;;4.70;99.90;;;;;;5053993;28;20207;-69
2021/11/27 00:43:54;;;;;;;6.82;3.80;;;4.80;99.90;;;;;;5054336;28;20254;-67
2021/11/27 00:46:22;;;;;;;4.63;3.65;;;4.80;99.90;;;;;;5054200;28;20288;-66
2021/11/27 00:48:50;;;;;;;3.80;3.28;;;4.90;99.90;;;;;;5054330;28;20210;-68
2021/11/27 00:51:19;;;;;;;6.10;3.97;;;4.80;99.90;;;;;;5054509;28;20274;-67
2021/11/27 00:53:48;;;;;;;4.10;3.40;;;4.90;99.90;;;;;;5053638;28;20310;-68
2021/11/27 00:56:15;;;;;;;3.92;3.50;;;4.90;99.90;;;;;;5054033;28;20235;-67
2021/11/27 00:58:44;;;;;;;4.50;3.83;;;5.00;99.90;;;;;;5054106;28;20208;-67
2021/11/27 01:01:14;;;;;;;4.45;3.70;;;5.00;99.90;;;;;;5053960;28;20626;-67
2021/11/27 01:03:44;;;;;;;4.88;3.55;;;5.00;99.90;;;;;;5053734;28;20286;-68
2021/11/27 01:06:13;;;;;;;4.32;3.90;;;5.10;99.90;;;;;;5053571;28;20302;-68
2021/11/27 01:08:41;;;;;;;4.60;3.95;;;5.00;99.90;;;;;;5053730;28;20210;-68
2021/11/27 01:11:13;;;;;;;4.45;4.03;;;5.00;99.90;;;;;;5053774;28;20235;-67
2021/11/27 01:13:44;;;;;;;5.30;4.30;;;5.00;99.90;;;;;;5053387;28;20334;-66
2021/11/27 01:16:12;;;;;;;4.20;3.80;;;4.90;99.90;;;;;;5053017;28;20727;-66
2021/11/27 01:18:39;;;;;;;5.10;4.03;;;4.80;99.90;;;;;;5053620;28;20235;-68
2021/11/27 01:21:09;;;;;;;4.70;3.90;;;4.80;99.90;;;;;;5053654;28;20242;-68
2021/11/27 01:23:38;;;;;;;5.60;4.20;;;4.90;99.90;;;;;;5053418;28;20287;-68
2021/11/27 01:26:06;;;;;;;4.05;3.65;;;4.90;99.90;;;;;;5053449;28;20231;-69
2021/11/27 01:28:33;;;;;;;5.70;4.28;;;4.90;99.90;;;;;;5053654;28;20238;-68
2021/11/27 01:31:02;;;;;;;5.93;4.70;;;4.90;99.90;;;;;;5053357;28;20740;-67
2021/11/27 01:33:31;;;;;;;5.32;4.05;;;5.00;99.90;;;;;;5053003;28;20648;-67
2021/11/27 01:35:58;;;;;;;6.88;4.28;;;5.00;99.90;;;;;;5052970;28;20242;-67
2021/11/27 01:38:25;;;;;;;6.53;5.03;;;4.90;99.90;;;;;;5053670;28;20239;-66
2021/11/27 01:40:54;;;;;;;5.80;4.28;;;4.90;99.90;;;;;;5053134;28;20265;-67
2021/11/27 01:43:21;;;;;;;5.20;4.32;;;4.90;99.90;;;;;;5052960;28;20291;-67
2021/11/27 01:45:49;;;;;;;5.65;4.25;;;4.80;99.90;;;;;;5052772;28;20286;-67
2021/11/27 01:48:18;;;;;;;6.47;4.65;;;4.90;99.90;;;;;;5053364;28;20231;-67
2021/11/27 01:50:49;;;;;;;5.95;4.97;;;4.90;99.90;;;;;;5053000;28;20262;-67
2021/11/27 01:53:17;;;;;;;5.18;4.50;;;4.90;99.90;;;;;;5052705;28;20226;-66
2021/11/27 01:55:44;;;;;;;5.20;4.07;;;4.90;99.90;;;;;;5052814;28;20200;-67
2021/11/27 01:58:12;;;;;;;6.55;4.85;;;4.90;99.90;;;;;;5052941;28;20682;-67
2021/11/27 02:00:46;;;;;;;6.68;4.82;;;4.90;99.90;;;;;;5052801;28;20306;-69
2021/11/27 02:03:13;;;;;;;7.00;4.80;;;4.90;99.90;;;;;;5052923;28;20290;-69
2021/11/27 02:05:40;;;;;;;5.65;4.25;;;4.90;99.90;;;;;;5052618;28;20901;-68
2021/11/27 02:08:08;;;;;;;5.95;4.55;;;4.90;99.90;;;;;;5052778;28;20290;-68
2021/11/27 02:10:35;;;;;;;7.35;4.43;;;4.90;99.90;;;;;;5052726;28;20310;-68
2021/11/27 02:13:02;;;;;;;5.18;4.68;;;5.00;99.90;;;;;;5052394;28;20658;-68
2021/11/27 02:15:31;;;;;;;5.55;4.65;;;5.00;99.90;;;;;;5052312;28;20249;-67
2021/11/27 02:17:58;;;;;;;4.45;3.70;;;5.00;99.90;;;;;;5052494;28;20242;-67
2021/11/27 02:20:25;;;;;;;5.30;4.43;;;5.00;99.90;;;;;;5052916;28;20259;-67
2021/11/27 02:22:53;;;;;;;5.15;3.90;;;5.00;99.90;;;;;;5052343;28;20290;-67
2021/11/27 02:25:22;;;;;;;5.45;3.75;;;5.00;99.90;;;;;;5052264;28;20286;-67
2021/11/27 02:27:52;;;;;;;5.45;4.07;;;5.00;99.90;;;;;;5052883;28;20235;-66
2021/11/27 02:30:22;;;;;;;6.35;4.40;;;5.00;99.90;;;;;;5052504;28;20228;-67
2021/11/27 02:32:49;;;;;;;5.65;3.92;;;5.00;99.90;;;;;;5052037;28;20230;-66
2021/11/27 02:35:16;;;;;;;4.75;3.83;;;5.00;99.90;;;;;;5052260;28;20208;-66
2021/11/27 02:37:43;;;;;;;6.20;4.00;;;5.00;99.90;;;;;;5051957;28;20286;-66
2021/11/27 02:40:13;;;;;;;5.50;4.15;;;5.00;99.90;;;;;;5052407;28;20333;-66
2021/11/27 02:42:40;;;;;;;6.25;4.65;;;5.00;99.90;;;;;;5052261;28;20246;-67
2021/11/27 02:45:09;;;;;;;4.30;3.90;;;5.00;99.90;;;;;;5052399;28;20290;-68
2021/11/27 02:47:37;;;;;;;5.70;5.05;;;5.00;99.90;;;;;;5052175;28;20249;-67
2021/11/27 02:50:06;;;;;;;5.45;4.50;;;5.00;99.90;;;;;;5052410;28;20258;-67
2021/11/27 02:52:34;;;;;;;6.00;4.68;;;5.00;99.90;;;;;;5051865;28;20276;-66
2021/11/27 02:55:01;;;;;;;7.40;4.47;;;5.00;99.90;;;;;;5052169;28;20310;-67
2021/11/27 02:57:30;;;;;;;5.80;4.70;;;5.10;99.90;;;;;;5052195;28;20731;-66
2021/11/27 02:59:59;;;;;;;5.90;4.70;;;5.00;99.90;;;;;;5052254;28;20263;-67
2021/11/27 03:02:26;;;;;;;5.90;4.07;;;5.10;99.90;;;;;;5051775;28;20692;-67
2021/11/27 03:04:53;;;;;;;5.13;4.63;;;5.00;99.90;;;;;;5052044;28;20286;-67
2021/11/27 03:07:21;;;;;;;5.15;4.40;;;5.00;99.90;;;;;;5052079;28;20294;-67
2021/11/27 03:09:48;;;;;;;5.97;4.40;;;5.00;99.90;;;;;;5052532;28;20255;-67
2021/11/27 03:12:15;;;;;;;4.93;4.22;;;4.90;99.90;;;;;;5051979;28;20613;-66
2021/11/27 03:14:43;;;;;;;4.47;3.80;;;4.90;99.90;;;;;;5051890;28;20314;-67
2021/11/27 03:17:10;;;;;;;4.50;4.10;;;4.90;99.90;;;;;;5051812;28;20306;-68
2021/11/27 03:19:40;;;;;;;5.25;4.13;;;5.00;99.90;;;;;;5053091;28;20228;-68
2021/11/27 03:22:07;;;;;;;4.40;3.92;;;4.90;99.90;;;;;;5053057;28;20294;-67
2021/11/27 03:24:35;;;;;;;5.30;4.20;;;4.90;99.90;;;;;;5052980;28;20238;-68
2021/11/27 03:27:02;;;;;;;5.70;4.18;;;5.00;99.90;;;;;;5052997;28;20630;-68
2021/11/27 03:29:29;;;;;;;6.10;4.32;;;5.00;99.90;;;;;;5052667;28;20269;-68
2021/11/27 03:32:00;;;;;;;4.28;3.80;;;5.00;99.90;;;;;;5053030;28;20239;-68
2021/11/27 03:34:27;;;;;;;4.93;4.32;;;5.00;99.90;;;;;;5053213;28;20266;-67
2021/11/27 03:36:54;;;;;;;4.90;4.05;;;5.00;99.90;;;;;;5052916;28;20629;-67
2021/11/27 03:39:20;;;;;;;4.30;3.90;;;5.10;99.90;;;;;;5052566;28;20288;-68
2021/11/27 03:41:47;;;;;;;4.45;4.00;;;5.10;99.90;;;;;;5052950;28;20294;-68
2021/11/27 03:44:15;;;;;;;5.88;4.53;;;5.20;99.90;;;;;;5052940;28;20242;-67
2021/11/27 03:46:42;;;;;;;4.35;3.80;;;5.10;99.90;;;;;;5052626;28;20634;-67
2021/11/27 03:49:10;;;;;;;5.22;3.95;;;5.20;99.90;;;;;;5054600;28;20648;-68
2021/11/27 03:51:37;;;;;;;4.85;3.50;;;5.10;99.90;;;;;;5056442;28;20614;-68
2021/11/27 03:54:05;;;;;;;4.88;3.72;;;5.00;99.90;;;;;;5056254;28;20254;-68
2021/11/27 03:56:32;;;;;;;6.60;4.68;;;5.00;99.90;;;;;;5056180;28;20247;-68
2021/11/27 03:59:03;;;;;;;4.50;3.83;;;4.90;99.90;;;;;;5056093;28;20394;-68
2021/11/27 04:01:31;;;;;;;6.25;4.07;;;4.90;99.90;;;;;;5056673;28;20241;-68
2021/11/27 04:04:00;;;;;;;4.60;3.95;;;4.90;99.90;;;;;;5056129;28;20235;-68
2021/11/27 04:06:29;;;;;;;4.53;3.75;;;4.70;99.90;;;;;;5056011;28;20200;-68
2021/11/27 04:08:59;;;;;;;5.07;4.35;;;4.70;99.90;;;;;;5056000;28;20269;-68
2021/11/27 04:11:27;;;;;;;4.63;4.05;;;4.70;99.90;;;;;;5055731;28;20203;-68
2021/11/27 04:13:54;;;;;;;5.18;3.70;;;4.70;99.90;;;;;;5056373;28;20315;-67
2021/11/27 04:16:21;;;;;;;4.40;3.92;;;4.70;99.90;;;;;;5055524;28;20254;-68
2021/11/27 04:18:48;;;;;;;3.75;3.35;;;4.60;99.90;;;;;;5055830;28;20295;-67
2021/11/27 04:21:17;;;;;;;6.78;3.85;;;4.60;99.90;;;;;;5055835;28;20306;-67
2021/11/27 04:23:46;;;;;;;4.10;3.30;;;4.50;99.90;;;;;;5055746;28;20235;-68
2021/11/27 04:26:13;;;;;;;4.30;2.83;;;4.50;99.90;;;;;;5055245;28;20243;-68
2021/11/27 04:28:40;;;;;;;4.50;2.70;;;4.60;99.90;;;;;;5055774;28;20291;-67
2021/11/27 04:31:07;;;;;;;3.65;3.10;;;4.70;99.90;;;;;;5055730;28;20242;-68
2021/11/27 04:33:34;;;;;;;3.10;2.90;;;4.70;99.90;;;;;;5055255;28;20295;-68
2021/11/27 04:36:01;;;;;;;2.72;2.40;;;4.80;99.90;;;;;;5055455;28;20231;-67
2021/11/27 04:38:28;;;;;;;3.65;2.63;;;4.80;99.90;;;;;;5055598;28;20390;-68
2021/11/27 04:40:57;;;;;;;2.45;2.25;;;4.80;99.90;;;;;;5055437;28;20318;-67
2021/11/27 04:43:24;;;;;;;3.70;2.28;;;4.80;99.90;;;;;;5055451;28;20329;-68
2021/11/27 04:45:51;;;;;;;2.13;2.03;;;4.90;99.90;;;;;;5055288;28;20239;-68
2021/11/27 04:48:18;;;;;;;2.25;2.05;;;4.90;99.90;;;;;;5055393;28;20246;-68
2021/11/27 04:50:45;;;;;;;2.55;2.22;;;4.80;99.90;;;;;;5055238;28;20310;-67
2021/11/27 04:53:14;;;;;;;2.80;2.17;;;4.80;99.90;;;;;;5055216;28;20290;-68
2021/11/27 04:55:41;;;;;;;3.25;2.22;;;4.70;99.90;;;;;;5054970;28;20314;-67
2021/11/27 04:58:10;;;;;;;2.85;2.13;;;4.70;99.90;;;;;;5055221;28;20294;-68
2021/11/27 05:00:40;;;;;;;2.10;1.90;;;4.70;99.90;;;;;;5054463;28;20769;-67
2021/11/27 05:03:07;;;;;;;2.63;2.00;;;4.80;99.90;;;;;;5055077;28;20595;-67
2021/11/27 05:05:34;;;;;;;2.75;1.38;;;4.70;99.90;;;;;;5055042;28;20239;-67
2021/11/27 05:08:01;;;;;;;1.75;1.45;;;4.70;99.90;;;;;;5055015;28;20298;-67
2021/11/27 05:10:28;;;;;;;2.10;1.90;;;4.80;99.90;;;;;;5054597;28;20251;-67
2021/11/27 05:12:55;;;;;;;2.90;2.05;;;4.90;99.90;;;;;;5054847;28;20621;-68
2021/11/27 05:15:24;;;;;;;1.70;1.60;;;5.00;99.90;;;;;;5054341;28;20310;-68
2021/11/27 05:17:51;;;;;;;1.48;1.38;;;5.00;99.90;;;;;;5054723;28;20242;-67
2021/11/27 05:20:17;;;;;;;2.40;1.95;;;5.00;99.90;;;;;;5054699;28;20315;-68
2021/11/27 05:22:44;;;;;;;1.92;1.70;;;5.10;99.90;;;;;;5054611;28;20290;-68
2021/11/27 05:25:12;;;;;;;2.40;2.20;;;5.00;99.90;;;;;;5054533;28;20249;-67
2021/11/27 05:27:40;;;;;;;1.52;1.42;;;5.10;99.90;;;;;;5054534;28;20295;-67
2021/11/27 05:30:11;;;;;;;1.70;1.58;;;5.00;99.90;;;;;;5054526;28;20255;-68
2021/11/27 05:32:53;;;;;;;1.70;1.60;;;5.00;99.90;;;;;;5054244;28;20192;-68
2021/11/27 05:35:20;;;;;;;1.67;1.50;;;5.00;99.90;;;;;;5053961;28;20230;-68
2021/11/27 05:37:47;;;;;;;1.90;1.70;;;5.00;99.90;;;;;;5054440;28;20207;-67
2021/11/27 05:40:14;;;;;;;3.72;2.10;;;4.90;99.90;;;;;;5054290;28;20626;-67
2021/11/27 05:42:43;;;;;;;1.73;1.63;;;5.00;99.90;;;;;;5054361;28;20234;-67
2021/11/27 05:45:11;;;;;;;2.08;1.60;;;5.10;99.90;;;;;;5054076;28;20286;-67
2021/11/27 05:47:39;;;;;;;2.10;1.50;;;5.00;99.90;;;;;;5054123;28;20658;-67
2021/11/27 05:50:07;;;;;;;3.83;1.70;;;5.10;99.90;;;;;;5054095;28;20223;-68
2021/11/27 05:52:34;;;;;;;1.50;1.40;;;5.20;99.90;;;;;;5054403;28;20299;-68
2021/11/27 05:55:01;;;;;;;2.13;1.75;;;5.30;99.90;;;;;;5053805;28;20262;-68
2021/11/27 05:57:28;;;;;;;1.70;1.60;;;5.30;99.90;;;;;;5054066;28;20207;-67
2021/11/27 05:59:55;;;;;;;2.85;1.60;;;5.30;99.90;;;;;;5053960;28;20650;-68
2021/11/27 06:02:22;;;;;;;1.50;1.40;;;5.30;99.90;;;;;;5053953;28;20231;-68
2021/11/27 06:04:50;;;;;;;2.20;2.00;;;5.20;99.90;;;;;;5053863;28;20274;-67
2021/11/27 06:07:17;;;;;;;1.63;1.52;;;5.20;99.90;;;;;;5053628;28;20673;-68
2021/11/27 06:09:44;;;;;;;4.70;1.80;;;5.20;99.90;;;;;;5053445;28;20310;-68
2021/11/27 06:12:11;;;;;;;1.50;1.40;;;5.20;99.90;;;;;;5052927;28;20299;-68
2021/11/27 06:14:38;;;;;;;2.20;1.80;;;5.20;99.90;;;;;;5053469;28;20308;-68
2021/11/27 06:17:05;;;;;;;2.08;1.88;;;5.20;99.90;;;;;;5053450;28;20245;-67
2021/11/27 06:19:32;;;;;;;2.05;1.85;;;5.30;99.90;;;;;;5053328;28;20262;-68
2021/11/27 06:22:00;;;;;;;1.75;1.65;;;5.20;99.90;;;;;;5053432;28;20294;-67
2021/11/27 06:24:28;;;;;;;1.65;1.55;;;5.30;99.90;;;;;;5053627;28;20286;-67
2021/11/27 06:26:55;;;;;;;2.25;1.90;;;5.30;99.90;;;;;;5053643;28;20204;-67
2021/11/27 06:29:22;;;;;;;1.92;1.52;;;5.20;99.90;;;;;;5053291;28;20258;-67
2021/11/27 06:31:50;;;;;;;1.95;1.75;;;5.20;99.90;;;;;;5053603;28;20624;-67
2021/11/27 06:34:17;;;;;;;1.63;1.52;;;5.20;99.90;;;;;;5053528;28;20258;-67
2021/11/27 06:36:44;;;;;;;1.80;1.70;;;5.20;99.90;;;;;;5053361;28;20632;-68
2021/11/27 06:39:12;;;;;;;1.98;1.80;;;5.10;99.90;;;;;;5053498;28;20649;-67
2021/11/27 06:41:39;;;;;;;1.85;1.70;;;5.10;99.90;;;;;;5053456;28;20294;-67
2021/11/27 06:44:06;;;;;;;2.05;1.80;;;5.10;99.90;;;;;;5053459;28;20294;-67
2021/11/27 06:46:33;;;;;;;2.05;1.85;;;5.00;99.90;;;;;;5053341;28;20235;-67
2021/11/27 06:49:00;;;;;;;2.00;1.80;;;5.10;99.90;;;;;;5053063;28;20238;-67
2021/11/27 06:51:27;;;;;;;1.58;1.48;;;5.10;99.90;;;;;;5053391;28;20294;-67
2021/11/27 06:53:54;;;;;;;2.90;1.92;;;5.10;99.90;;;;;;5053398;28;20242;-67
2021/11/27 06:56:22;;;;;;;1.83;1.73;;;5.10;99.90;;;;;;5052784;28;20270;-67
2021/11/27 06:58:49;;;;;;;2.55;1.60;;;5.00;99.90;;;;;;5053305;28;20235;-67
2021/11/27 07:01:16;;;;;;;2.00;1.50;;;5.10;99.90;;;;;;5053340;28;20572;-67
2021/11/27 07:03:43;;;;;;;1.95;1.50;;;5.10;99.90;;;;;;5053110;28;20748;-67
2021/11/27 07:06:10;;;;;;;4.68;3.80;;;5.20;99.90;;;;;;5053184;28;20231;-67
2021/11/27 07:08:36;;;;;;;1.65;1.55;;;5.20;99.90;;;;;;5053193;28;20235;-67
2021/11/27 07:11:04;;;;;;;1.65;1.55;;;5.30;99.90;;;;;;5053134;28;20649;-67
2021/11/27 07:13:32;;;;;;;1.80;1.70;;;5.30;99.90;;;;;;5053250;28;20619;-67
2021/11/27 07:15:59;;;;;;;2.30;1.60;;;5.30;99.90;;;;;;5052687;28;20259;-67
2021/11/27 07:18:26;;;;;;;1.65;1.50;;;5.30;99.90;;;;;;5053125;28;20246;-67
2021/11/27 07:20:53;;;;;;;1.77;1.45;;;5.30;99.90;;;;;;5052803;28;20255;-67
2021/11/27 07:23:19;;;;;;;1.58;1.25;;;5.30;99.90;;;;;;5055245;28;20674;-67
2021/11/27 07:25:47;;;;;;;1.77;1.65;;;5.30;99.90;;;;;;5056488;28;20235;-67
2021/11/27 07:28:14;;;;;;;1.83;1.65;;;5.40;99.90;;;;;;5056826;28;20216;-67
2021/11/27 07:30:42;;;;;;;1.70;1.60;;;5.30;99.90;;;;;;5056812;28;20262;-67
2021/11/27 07:33:09;;;;;;;2.17;1.70;;;5.40;99.90;;;;;;5056935;28;20290;-67
2021/11/27 07:35:36;;;;;;;1.90;1.80;;;5.40;99.90;;;;;;5056345;28;20310;-67
2021/11/27 07:38:03;;;;;;;9.65;5.07;;;5.40;99.90;;;;;;5056371;28;20677;-67
2021/11/27 07:40:30;;;;;;;2.28;2.00;;;5.40;99.90;;;;;;5056579;28;20315;-67
2021/11/27 07:42:58;;;;;;;1.50;1.40;;;5.50;99.90;;;;;;5056613;28;20306;-67
2021/11/27 07:45:25;;;;;;;2.05;1.88;;;5.50;99.90;;;;;;5056264;28;20196;-67
2021/11/27 07:47:53;;;;;;;1.55;1.45;;;5.50;99.90;;;;;;5056382;28;20207;-67
2021/11/27 07:50:20;;;;;;;2.97;1.50;;;5.60;99.90;;;;;;5056445;28;20219;-67
2021/11/27 07:52:47;;;;;;;1.60;1.50;;;5.60;99.90;;;;;;5056415;28;20239;-67
2021/11/27 07:55:14;;;;;;;1.60;1.50;;;5.60;99.90;;;;;;5055905;28;20262;-67
2021/11/27 07:57:40;;;;;;;1.70;1.50;;;5.50;99.90;;;;;;5056283;28;20621;-67
2021/11/27 08:00:09;;;;;;;1.50;1.40;;;5.60;99.90;;;;;;5056009;28;20258;-67
2021/11/27 08:02:37;;;;;;;1.55;1.45;;;5.60;99.90;;;;;;5055940;28;20226;-67
2021/11/27 08:05:07;;;;;;;1.70;1.60;;;5.60;99.90;;;;;;5055920;28;20302;-67
2021/11/27 08:07:35;;;;;;;1.92;1.63;;;5.60;99.90;;;;;;5056112;28;20611;-67
2021/11/27 08:10:02;;;;;;;1.55;1.30;;;5.60;99.90;;;;;;5055754;28;20234;-67
2021/11/27 08:12:29;;;;;;;1.15;1.10;;;5.60;99.90;;;;;;5055765;28;20235;-67
2021/11/27 08:14:56;;;;;;;1.63;1.52;;;5.60;99.90;;;;;;5055861;28;20315;-67
2021/11/27 08:17:22;;;;;;;1.77;1.60;;;5.60;99.90;;;;;;5055647;28;20247;-67
2021/11/27 08:19:49;;;;;;;1.50;1.40;;;5.60;99.90;;;;;;5055621;28;20306;-67
2021/11/27 08:22:18;;;;;;;1.65;1.55;;;5.50;99.90;;;;;;5055652;28;20235;-67
2021/11/27 08:24:45;;;;;;;1.80;1.50;;;5.50;99.90;;;;;;5055740;28;20239;-67
2021/11/27 08:27:12;;;;;;;2.65;2.30;;;5.60;99.90;;;;;;5055838;28;20199;-67
2021/11/27 08:29:39;;;;;;;2.55;1.95;;;5.60;99.90;;;;;;5055382;28;20739;-67
2021/11/27 08:32:06;;;;;;;2.08;1.85;;;5.60;99.90;;;;;;5055741;28;20243;-67
2021/11/27 08:34:33;;;;;;;1.52;1.42;;;5.80;99.90;;;;;;5054789;28;20262;-67
2021/11/27 08:37:00;;;;;;;1.90;1.80;;;5.80;99.90;;;;;;5055295;28;20245;-67
2021/11/27 08:39:28;;;;;;;2.55;2.10;;;6.00;99.90;;;;;;5055439;28;20311;-67
2021/11/27 08:41:55;;;;;;;2.22;1.80;;;6.10;99.90;;;;;;5055555;28;20306;-67
2021/11/27 08:44:22;;;;;;;2.80;2.10;;;6.10;99.90;;;;;;5055385;28;20299;-68
2021/11/27 08:46:49;;;;;;;2.85;2.20;;;6.20;99.90;;;;;;5055129;28;20242;-68
2021/11/27 08:49:16;;;;;;;3.38;3.05;;;6.20;99.90;;;;;;5055205;28;20314;-67
2021/11/27 08:51:43;;;;;;;4.45;3.08;;;6.30;99.90;;;;;;5055347;28;20298;-68
2021/11/27 08:54:12;;;;;;;2.17;1.80;;;6.40;99.90;;;;;;5055315;28;20237;-68
2021/11/27 08:56:40;;;;;;;3.15;2.00;;;6.50;99.90;;;;;;5055108;28;20318;-67
2021/11/27 08:59:07;;;;;;;2.15;1.80;;;6.60;99.90;;;;;;5055105;28;20262;-67
2021/11/27 09:01:35;;;;;;;1.98;1.88;;;6.70;99.90;;;;;;5055128;28;20290;-68
2021/11/27 09:04:02;;;;;;;2.58;2.30;;;6.80;99.90;;;;;;5055553;28;20290;-68
2021/11/27 09:06:29;;;;;;;2.45;1.98;;;6.90;99.90;;;;;;5054639;28;20295;-67
2021/11/27 09:08:56;;;;;;;6.18;4.40;;;6.90;99.90;;;;;;5054877;28;20297;-67
2021/11/27 09:11:25;;;;;;;5.28;3.58;;;7.00;99.90;;;;;;5054962;28;20294;-67
2021/11/27 09:13:53;;;;;;;2.40;2.20;;;7.00;99.90;;;;;;5054819;28;20621;-68
2021/11/27 09:16:20;;;;;;;2.03;1.70;;;7.00;99.90;;;;;;5054349;28;20259;-67
2021/11/27 09:18:47;;;;;;;1.88;1.73;;;7.00;99.90;;;;;;5054748;28;20636;-67
2021/11/27 09:21:14;;;;;;;1.40;1.30;;;7.10;99.90;;;;;;5054780;28;20249;-68
2021/11/27 09:23:41;;;;;;;3.05;1.70;;;7.20;99.90;;;;;;5054754;28;20294;-68
2021/11/27 09:26:08;;;;;;;2.63;1.75;;;7.40;99.90;;;;;;5054296;28;20298;-67
2021/11/27 09:28:35;;;;;;;1.83;1.55;;;7.50;99.90;;;;;;5054635;28;20289;-67
2021/11/27 09:31:03;;;;;;;1.70;1.42;;;7.60;99.90;;;;;;5054207;28;20313;-68
2021/11/27 09:33:30;;;;;;;1.40;1.30;;;7.50;99.90;;;;;;5054569;28;20239;-68
2021/11/27 09:36:01;;;;;;;1.10;1.10;;;7.50;99.90;;;;;;5054231;28;20605;-68
2021/11/27 09:38:28;;;;;;;1.83;1.60;;;7.50;99.90;;;;;;5054406;28;20203;-68
2021/11/27 09:41:13;;;;;;;1.55;1.45;;;7.50;99.90;;;;;;5054367;28;20220;-68
2021/11/27 09:43:43;;;;;;;1.33;1.23;;;7.60;99.90;;;;;;5054382;28;20191;-68
2021/11/27 09:46:12;;;;;;;1.42;1.33;;;7.60;99.90;;;;;;5053314;28;20314;-67
2021/11/27 09:48:41;;;;;;;1.40;1.30;;;7.50;99.90;;;;;;5053955;28;20705;-67
2021/11/27 09:51:09;;;;;;;1.60;1.50;;;7.40;99.90;;;;;;5053771;28;20230;-67
2021/11/27 09:53:38;;;;;;;2.33;1.70;;;7.30;99.90;;;;;;5054172;28;20307;-67
2021/11/27 09:56:06;;;;;;;1.58;1.40;;;7.20;99.90;;;;;;5053666;28;20219;-68
2021/11/27 09:58:33;;;;;;;0.98;0.98;;;7.20;99.90;;;;;;5054115;28;20290;-68
2021/11/27 10:01:02;;;;;;;1.50;1.40;;;7.20;99.90;;;;;;5053993;28;20318;-68
2021/11/27 10:03:31;;;;;;;1.67;1.25;;;7.20;99.90;;;;;;5053966;28;20294;-68
2021/11/27 10:05:59;;;;;;;3.22;1.20;;;7.20;99.90;;;;;;5053859;28;20290;-68
2021/11/27 10:08:26;;;;;;;1.85;1.05;;;7.20;99.90;;;;;;5053703;28;20297;-67
2021/11/27 10:10:53;;;;;;;1.98;1.50;;;7.40;99.90;;;;;;5053906;28;20251;-68
2021/11/27 10:13:21;;;;;;;1.13;0.90;;;7.40;99.90;;;;;;5053688;28;20204;-68
2021/11/27 10:15:49;;;;;;;1.35;1.17;;;7.50;99.90;;;;;;5053216;28;20713;-68
2021/11/27 10:18:17;;;;;;;1.30;1.20;;;7.50;99.90;;;;;;5053684;28;20265;-68
2021/11/27 10:20:46;;;;;;;1.73;1.20;;;7.50;99.90;;;;;;5053419;28;20310;-68
2021/11/27 10:23:13;;;;;;;6.88;4.60;;;7.50;99.90;;;;;;5053764;28;20298;-68
2021/11/27 10:25:42;;;;;;;2.88;1.75;;;7.50;99.90;;;;;;5053322;28;20231;-68
2021/11/27 10:28:12;;;;;;;2.28;1.98;;;7.50;99.90;;;;;;5053653;28;20613;-67
2021/11/27 10:30:52;;;;;;;2.20;1.27;;;7.50;99.90;;;;;;5053579;28;20306;-68
2021/11/27 10:33:20;;;;;;;1.83;1.73;;;7.50;99.90;;;;;;5053663;28;20564;-68
2021/11/27 10:35:58;;;;;;;1.45;1.35;;;7.50;99.90;;;;;;5053438;28;20262;-68
2021/11/27 10:38:39;;;;;;;6.20;3.50;;;7.60;99.90;;;;;;5053469;28;20684;-68
2021/11/27 10:41:07;;;;;;;3.15;1.50;;;7.60;99.90;;;;;;5053506;28;20314;-68
2021/11/27 10:43:35;;;;;;;1.45;1.35;;;7.60;99.90;;;;;;5053247;28;20293;-67
2021/11/27 10:46:03;;;;;;;2.97;1.50;;;7.70;99.90;;;;;;5053434;28;20569;-68
2021/11/27 10:48:30;;;;;;;5.10;1.20;;;7.60;99.90;;;;;;5053277;28;20242;-68
2021/11/27 10:51:02;;;;;;;1.13;1.02;;;7.60;99.90;;;;;;5053398;28;20227;-68
2021/11/27 10:53:33;;;;;;;1.58;1.20;;;7.60;99.90;;;;;;5053306;28;20210;-68
2021/11/27 10:56:05;;;;;;;0.88;0.88;;;7.60;99.90;;;;;;5052911;28;20215;-67
2021/11/27 10:58:33;;;;;;;1.23;1.13;;;7.50;99.90;;;;;;5056790;28;20278;-68
2021/11/27 11:01:01;;;;;;;1.60;1.23;;;7.50;99.90;;;;;;5057366;28;20265;-68
2021/11/27 11:03:30;;;;;;;2.67;1.40;;;7.50;99.90;;;;;;5057326;28;20274;-67
2021/11/27 11:06:01;;;;;;;2.47;1.52;;;7.50;99.90;;;;;;5056987;28;20625;-68
2021/11/27 11:08:33;;;;;;;2.70;1.20;;;7.50;99.90;;;;;;5057390;28;20644;-68
2021/11/27 11:11:02;;;;;;;1.52;1.20;;;7.50;99.90;;;;;;5057212;28;20265;-68
2021/11/27 11:13:32;;;;;;;2.05;1.15;;;7.40;99.90;;;;;;5057139;28;20234;-68
2021/11/27 11:16:06;;;;;;;2.63;2.42;;;7.40;99.90;;;;;;5056490;28;20312;-67
2021/11/27 11:18:34;;;;;;;3.00;2.10;;;7.40;99.90;;;;;;5056916;28;20279;-68
2021/11/27 11:21:07;;;;;;;2.25;1.30;;;7.40;99.90;;;;;;5058878;28;20314;-68
2021/11/27 11:23:35;;;;;;;3.15;1.27;;;7.50;99.90;;;;;;5061444;28;20644;-68
2021/11/27 11:26:06;;;;;;;1.45;1.35;;;7.60;99.90;;;;;;5055588;28;20795;-68
2021/11/27 11:28:36;;;;;;;1.83;1.42;;;7.60;99.90;;;;;;5055641;28;20235;-68
2021/11/27 11:31:06;;;;;;;1.95;1.38;;;7.50;99.90;;;;;;5055358;28;20259;-68
2021/11/27 11:33:35;;;;;;;1.13;1.02;;;7.50;99.90;;;;;;5055167;28;20239;-68
2021/11/27 11:36:06;;;;;;;1.80;1.45;;;7.50;99.90;;;;;;5055285;28;20211;-68
2021/11/27 11:38:34;;;;;;;1.35;1.13;;;7.50;99.90;;;;;;5055290;28;20310;-68
2021/11/27 11:41:00;;;;;;;1.42;1.23;;;7.50;99.90;;;;;;5055440;28;20278;-68
2021/11/27 11:43:27;;;;;;;4.70;1.75;;;7.50;99.90;;;;;;5055490;28;20203;-68
2021/11/27 11:45:54;;;;;;;1.40;1.30;;;7.50;99.90;;;;;;5055000;28;20253;-68
2021/11/27 11:48:25;;;;;;;1.80;1.67;;;7.50;99.90;;;;;;5055282;28;20286;-68
2021/11/27 11:51:02;;;;;;;2.72;1.80;;;7.60;99.90;;;;;;5055147;28;20254;-68
2021/11/27 11:53:46;;;;;;;3.80;1.42;;;7.60;99.90;;;;;;5055020;28;20306;-69
2021/11/27 11:56:13;;;;;;;1.77;1.60;;;7.70;99.90;;;;;;5054404;28;20339;-68
2021/11/27 11:58:43;;;;;;;1.77;1.10;;;7.80;99.90;;;;;;5055062;28;20677;-68
2021/11/27 12:01:16;;;;;;;2.70;1.80;;;7.80;99.90;;;;;;5055044;28;20261;-69
2021/11/27 12:03:45;;;;;;;3.28;1.70;;;7.80;99.90;;;;;;5054567;28;20330;-68
2021/11/27 12:06:13;;;;;;;2.08;1.80;;;7.80;99.90;;;;;;5054548;28;20196;-68
2021/11/27 12:09:06;;;;;;;1.52;1.42;;;7.80;99.90;;;;;;5053896;28;20235;-68
2021/11/27 12:11:55;;;;;;;2.30;1.67;;;7.80;99.90;;;;;;5054787;28;20291;-67
2021/11/27 12:15:07;;;;;;;1.45;1.10;;;7.70;99.90;;;;;;5054598;28;20290;-68
2021/11/27 12:17:55;;;;;;;1.45;1.30;;;7.70;99.90;;;;;;5054435;28;20242;-67
2021/11/27 12:20:41;;;;;;;1.80;1.55;;;7.70;99.90;;;;;;5054519;28;20263;-68
2021/11/27 12:23:35;;;;;;;3.20;1.70;;;7.80;99.90;;;;;;5054503;28;20206;-67
2021/11/27 12:26:22;;;;;;;1.52;1.40;;;7.80;99.90;;;;;;5054432;28;20234;-67
2021/11/27 12:29:15;;;;;;;1.40;1.20;;;7.80;99.90;;;;;;5054755;28;20298;-67
2021/11/27 12:31:51;;;;;;;2.65;1.65;;;7.80;99.90;;;;;;5054253;28;20636;-68
2021/11/27 12:34:33;;;;;;;2.20;1.83;;;7.80;99.90;;;;;;5054452;28;20298;-68
2021/11/27 12:37:01;;;;;;;1.55;1.45;;;7.90;99.90;;;;;;5054383;28;20227;-67
2021/11/27 12:39:36;;;;;;;2.38;1.80;;;7.80;99.90;;;;;;5054173;28;20634;-67
2021/11/27 12:42:22;;;;;;;3.80;1.85;;;7.80;99.90;;;;;;5054313;28;20207;-67
2021/11/27 12:44:51;;;;;;;5.50;3.53;;;7.80;99.90;;;;;;5054182;28;20627;-67
2021/11/27 12:47:31;;;;;;;2.20;2.00;;;7.90;99.90;;;;;;5053952;28;20685;-67
2021/11/27 12:49:59;;;;;;;2.53;1.70;;;8.00;99.90;;;;;;5054463;28;20258;-67
2021/11/27 12:52:39;;;;;;;1.45;1.20;;;8.20;99.90;;;;;;5053763;28;20290;-67
2021/11/27 12:55:29;;;;;;;1.35;1.25;;;8.20;99.90;;;;;;5053678;28;20242;-67
2021/11/27 12:57:56;;;;;;;1.20;1.10;;;8.20;99.90;;;;;;5053902;28;20223;-67
2021/11/27 13:00:26;;;;;;;1.45;1.23;;;8.10;99.90;;;;;;5053849;28;20317;-67
2021/11/27 13:02:56;;;;;;;1.33;1.23;;;8.10;99.90;;;;;;5053813;28;20276;-67
2021/11/27 13:05:24;;;;;;;2.38;1.60;;;8.00;99.90;;;;;;5053561;28;20203;-68
2021/11/27 13:07:52;;;;;;;1.45;1.35;;;8.00;99.90;;;;;;5053796;28;20231;-68